createdAt,value
2022-11-24T00:01:40.819Z,99068.09
2022-11-24T01:24:28.154Z,99158.78
2022-11-24T06:17:15.273Z,99301.44
2022-11-24T06:20:42.231Z,99307.94
2022-11-24T06:49:32.779Z,99346.28
2022-11-24T06:53:28.983Z,99345.84
2022-11-24T07:39:01.818Z,99384.75
2022-11-24T07:41:56.030Z,99387.16
2022-11-24T07:44:47.260Z,99397.00
2022-11-24T07:47:40.940Z,99392.47
2022-11-24T07:50:31.624Z,99408.13
2022-11-24T07:53:19.766Z,99416.06
2022-11-24T07:56:12.502Z,99411.09
2022-11-24T07:59:06.620Z,99419.59
2022-11-24T08:01:54.640Z,99407.13
2022-11-24T08:06:15.962Z,99415.84
2022-11-24T08:08:48.649Z,99429.28
2022-11-24T08:12:15.824Z,99426.53
2022-11-24T08:15:14.402Z,99415.06
2022-11-24T08:18:22.615Z,99433.59
2022-11-24T08:21:44.727Z,99439.44
2022-11-24T08:28:50.228Z,99437.22
2022-11-24T08:50:46.008Z,99455.78
2022-11-24T08:53:50.091Z,99449.41
2022-11-24T09:08:04.692Z,99460.19
2022-11-24T09:11:50.636Z,99454.69
2022-11-24T09:15:17.452Z,99461.84
2022-11-24T09:23:23.995Z,99466.66
2022-11-24T09:34:47.145Z,99490.50
2022-11-24T09:38:25.755Z,99483.69
2022-11-24T09:45:12.969Z,99491.72
2022-11-24T09:49:03.574Z,99498.47
2022-11-24T09:52:14.855Z,99478.59
2022-11-24T10:02:31.186Z,99509.28
2022-11-24T10:06:59.310Z,99490.16
2022-11-24T11:38:45.835Z,99558.34
2022-11-24T11:57:51.286Z,99572.59
2022-11-24T12:01:38.591Z,99571.25
2022-11-24T12:05:01.933Z,99582.25
2022-11-24T12:09:18.618Z,99578.72
2022-11-24T12:15:53.850Z,99593.81
2022-11-24T12:19:05.996Z,99599.25
2022-11-24T12:22:51.917Z,99587.84
2022-11-24T12:27:00.850Z,99606.75
2022-11-24T12:40:17.995Z,99607.28
2022-11-24T12:47:13.970Z,99602.94
2022-11-24T12:50:27.909Z,99605.78
2022-11-24T12:53:36.270Z,99616.75
2022-11-24T12:56:48.420Z,99614.59
2022-11-24T13:03:54.721Z,99616.19
2022-11-24T13:07:10.475Z,99621.56
2022-11-24T13:11:46.674Z,99629.34
2022-11-24T13:15:01.137Z,99628.03
2022-11-24T13:19:00.165Z,99614.66
2022-11-24T13:22:36.122Z,99629.34
2022-11-24T13:25:45.113Z,99630.97
2022-11-24T13:29:23.868Z,99627.16
2022-11-24T13:32:18.546Z,99639.91
2022-11-24T13:36:04.834Z,99640.88
2022-11-24T13:38:54.746Z,99648.88
2022-11-24T13:41:50.629Z,99646.88
2022-11-24T13:44:48.523Z,99656.31
2022-11-24T13:47:47.814Z,99638.28
2022-11-24T13:51:01.936Z,99646.16
2022-11-24T13:54:41.354Z,99647.81
2022-11-24T13:57:44.250Z,99646.28
2022-11-24T14:00:38.486Z,99653.81
2022-11-24T14:03:32.367Z,99653.47
2022-11-24T14:11:00.311Z,99639.19
2022-11-24T14:14:36.895Z,99642.88
2022-11-24T14:17:38.540Z,99640.25
2022-11-24T14:20:32.092Z,99635.03
2022-11-24T14:23:24.119Z,99645.19
2022-11-24T14:26:25.725Z,99648.44
2022-11-24T14:29:22.042Z,99648.09
2022-11-24T14:32:26.604Z,99653.81
2022-11-24T14:35:31.631Z,99650.09
2022-11-24T14:38:26.353Z,99640.06
2022-11-24T14:45:25.708Z,99640.50
2022-11-24T14:48:54.253Z,99644.69
2022-11-24T14:52:18.228Z,99649.78
2022-11-24T14:55:47.461Z,99656.13
2022-11-24T14:58:42.557Z,99646.38
2022-11-24T15:02:32.997Z,99648.06
2022-11-24T15:09:48.397Z,99663.22
2022-11-24T15:33:00.193Z,99684.78
2022-11-24T15:35:52.063Z,99688.97
2022-11-24T15:45:10.001Z,99689.63
2022-11-24T15:47:58.126Z,99690.53
2022-11-24T15:50:58.666Z,99701.13
2022-11-24T16:02:22.559Z,99713.22
2022-11-24T16:05:26.162Z,99730.22
2022-11-24T16:08:32.067Z,99721.38
2022-11-24T16:25:08.843Z,99740.28
